Météo Cheval Rigon

 

Relevés d'aujourd'hui



 

22/4/19
Time         Wind Dir   Wind Spd  Wind Gust   Humidity       Temp   Tot Rain Wind Chill  Dew Point   Barom SL Humidity R Temp Out R Tot Rain R   WindCh R   Dew Pt R SL Barom R Temp Out H Temp Out L  DailyRain   HourRain   24HrRain   RainRate  MonthRain
                          km/hr      km/hr          %         C         mm         C         C         mb       %/hr      C/hr      mm/hr      C/hr      C/hr      mm/hr         C         C         mm         mm         mm      mm/hr         mm
0:00              120          0          3         84       10.7     132.00       10.7        8.1    1012.74       -0.3      -0.13      0.000      -0.12      -0.16     -0.673       10.7       10.7       0.00       0.00       0.00      0.000      21.60
0:15              120          0          3         84       10.6     132.00       10.6        8.0    1012.61       -0.2      -0.20      0.000      -0.19      -0.22     -0.635       10.7       10.6       0.00       0.00       0.00      0.000      21.60
0:30              120          0          2         84       10.6     132.00       10.6        8.0    1012.44       -0.2      -0.21      0.000      -0.20      -0.22     -0.644       10.7       10.6       0.00       0.00       0.00      0.000      21.60
0:45              120          0          0         85       10.3     132.00       10.3        7.9    1012.23        0.7      -0.36      0.000      -0.36      -0.23     -0.685       10.7       10.3       0.00       0.00       0.00      0.000      21.60
1:00              120          0          2         84       10.3     132.00       10.3        7.8    1012.20       -0.4      -0.27      0.000      -0.27      -0.33     -0.557       10.7       10.2       0.00       0.00       0.00      0.000      21.60
1:15              139          0          6         85       10.3     132.00       10.3        7.9    1012.17        0.6      -0.28      0.000      -0.27      -0.16     -0.463       10.7       10.2       0.00       0.00       0.00      0.000      21.60
1:30              139          0          0         84       10.1     132.00       10.1        7.5    1011.93       -0.3      -0.36      0.000      -0.36      -0.41     -0.571       10.7       10.1       0.00       0.00       0.00      0.000      21.60
1:45              139          0          0         83       10.1     132.00       10.1        7.3    1011.86       -1.1      -0.34      0.000      -0.34      -0.53     -0.521       10.7       10.1       0.00       0.00       0.00      0.000      21.60
2:00              139          0          0         84        9.7     132.00        9.7        7.2    1011.62       -0.1      -0.56      0.000      -0.56      -0.56     -0.613       10.7        9.7       0.00       0.00       0.00      0.000      21.60
2:15              139          0          0         85        9.7     132.00        9.7        7.3    1011.49        0.8      -0.48      0.000      -0.48      -0.34     -0.608       10.7        9.7       0.00       0.00       0.00      0.000      21.60
2:30              139          0          0         85        9.8     132.00        9.8        7.4    1011.22        0.6      -0.29      0.000      -0.29      -0.18     -0.711       10.7        9.7       0.00       0.00       0.00      0.000      21.60
2:45              139          0          0         85        9.7     132.00        9.7        7.3    1010.98        0.5      -0.28      0.000      -0.28      -0.19     -0.758       10.7        9.7       0.00       0.00       0.00      0.000      21.60
3:00              139          0          2         85        9.9     132.00        9.9        7.5    1010.78        0.4      -0.01      0.000      -0.01       0.05     -0.772       10.7        9.7       0.00       0.00       0.00      0.000      21.60
3:15              139          0          0         84       10.0     132.00       10.0        7.4    1010.68       -0.5       0.04      0.000       0.04      -0.05     -0.689       10.7        9.7       0.00       0.00       0.00      0.000      21.60
3:30              139          0          0         83       10.0     132.00       10.0        7.2    1010.37       -1.2       0.04      0.000       0.04      -0.18     -0.796       10.7        9.7       0.00       0.00       0.00      0.000      21.60
3:45              139          0          3         80       10.6     132.00       10.6        7.3    1010.20       -3.6       0.59      0.000       0.59      -0.08     -0.762       10.7        9.7       0.00       0.00       0.00      0.000      21.60
4:00              139          0          2         78       11.1     132.00       11.1        7.4    1010.03       -4.6       0.84      0.000       0.84      -0.01     -0.742       11.1        9.7       0.00       0.00       0.00      0.000      21.60
4:15              139          0          3         78       11.2     132.00       11.2        7.5    1010.03       -3.6       0.75      0.000       0.75       0.09     -0.574       11.2        9.7       0.00       0.00       0.00      0.000      21.60
4:30              139          0          2         78       11.1     132.00       11.1        7.4    1009.76       -2.8       0.54      0.000       0.54       0.02     -0.680       11.2        9.7       0.00       0.00       0.00      0.000      21.60
4:45              139          0          0         79       11.0     132.00       11.0        7.5    1009.52       -1.3       0.32      0.000       0.32       0.08     -0.738       11.2        9.7       0.00       0.00       0.00      0.000      21.60
5:00              139          0          0         79       10.9     132.00       10.9        7.4    1009.32       -1.0       0.15      0.000       0.15      -0.03     -0.746       11.2        9.7       0.00       0.00       0.00      0.000      21.60
5:15              139          0          0         79       10.9     132.00       10.9        7.4    1009.02       -0.8       0.17      0.000       0.17       0.03     -0.847       11.2        9.7       0.00       0.00       0.00      0.000      21.60
5:30              139          0          0         79       10.8     132.00       10.8        7.3    1008.71       -0.5      -0.02      0.000      -0.02      -0.12     -0.919       11.2        9.7       0.00       0.00       0.00      0.000      21.60
5:45              139          0          0         79       10.4     132.00       10.4        7.0    1008.34       -0.4      -0.31      0.000      -0.31      -0.38     -1.032       11.2        9.7       0.00       0.00       0.00      0.000      21.60
6:00              139          0          0         80       10.2     132.00       10.2        6.9    1008.03        0.5      -0.43      0.000      -0.43      -0.32     -1.073       11.2        9.7       0.00       0.00       0.00      0.000      21.60
6:15              139          0          0         80       10.1     132.00       10.1        6.8    1007.90        0.4      -0.50      0.000      -0.50      -0.40     -0.956       11.2        9.7       0.00       0.00       0.00      0.000      21.60
6:30              139          0          0         81        9.8     132.00        9.8        6.7    1007.76        1.2      -0.58      0.000      -0.58      -0.35     -0.861       11.2        9.7       0.00       0.00       0.00      0.000      21.60
6:45              139          0          0         82        9.7     132.00        9.7        6.8    1007.66        1.9      -0.55      0.000      -0.55      -0.21     -0.760       11.2        9.7       0.00       0.00       0.00      0.000      21.60
7:00              139          0          0         83        9.6     132.00        9.6        6.9    1007.63        2.4      -0.53      0.000      -0.53      -0.09     -0.617       11.2        9.6       0.00       0.00       0.00      0.000      21.60
7:15              139          0          5         84        9.4     132.00        9.4        6.8    1007.63        2.7      -0.61      0.000      -0.61      -0.12     -0.470       11.2        9.4       0.00       0.00       0.00      0.000      21.60
7:30              139          0          0         85        9.3     132.00        9.3        6.9    1007.46        3.0      -0.57      0.000      -0.57      -0.02     -0.518       11.2        9.3       0.00       0.00       0.00      0.000      21.60
7:45              139          0          0         85        9.3     132.00        9.3        6.9    1007.43        2.4      -0.44      0.000      -0.44      -0.02     -0.442       11.2        9.3       0.00       0.00       0.00      0.000      21.60
8:00              139          0          0         86        9.4     132.00        9.4        7.2    1007.29        2.6      -0.20      0.000      -0.20       0.27     -0.461       11.2        9.3       0.00       0.00       0.00      0.000      21.60

 


 

 

 

Retour accueil